Terminal Aerodrome Forecast
Issued by NWS Pocatello, ID

Home | Current Version | Previous Version | Text Only | Print | Product List | Glossary On
Versions: 1 2 3 4 5 6 7 8 9 10 11 12 13 14 15 16 17 18
151
FTUS45 KPIH 201722
TAFPIH
TAF
KPIH 201722Z 2018/2118 25026G36KT P6SM VCSH BKN020 OVC040
      TEMPO 2018/2020 OVC017
     FM202000 24032G42KT P6SM VCSH SCT030 OVC050
     FM210200 23018KT P6SM SCT050 SCT150
     FM211000 22013KT P6SM BKN150
     FM211700 23020G30KT P6SM BKN150=

USA.gov is the U.S. government's official web portal to all federal, state and local government web resources and services.